Aransas Pass, TX (78336)

8:54 AM CST on January 26, 2015 (GMT -0600)
Gas Lite Village | Change Station
CLOSE
Current Station
Personal Weather Station
Location: Aransas Pass, TX
Elevation: 18 ft
Nearby Weather Stations

Elev 18 ft 27.92 °N, 97.16 °W | Updated 5 seconds ago

Clear
Clear
50.3 °F
Feels Like 50.3 °F
N
0.1
Wind Variable Wind from WNW
Gusts 2.3 mph

Today
High -- | Low -- °F
--% Chance of Precip.
Yesterday
High -- | Low -- °F
Precip. -- in
7:18 AM 6:04 PM
Waxing Crescent, 44% visible
Pressure 30.28 in
Visibility 10.0 miles
Clouds Clear
Dew Point 45 °F
Humidity 82%
Rainfall 0.00 in
Snow Depth Not available.
UV 1 out of 12
Pollen 7.40 out of 12
Air Quality Not available.
Flu Activity Not available.
METAR KTFP 261435Z AUTO 27003KT 10SM CLR 10/06 A3028 RMK AO2 T00950062

More Conditions Fewer Conditions

Pressure 30.28 in
Visibility 10.0 miles
Clouds Clear
Dew Point 45 °F
Humidity 82%
Rainfall 0.00 in
Snow Depth Not available.
UV 1 out of 12
Pollen 7.40 out of 12
Air Quality Not available.
Flu Activity Not available.
METAR KTFP 261435Z AUTO 27003KT 10SM CLR 10/06 A3028 RMK AO2 T00950062

More Conditions Fewer Conditions

10-Day Weather Forecast

Almanac

Astronomy

Jan. 26, 2015 Rise Set
Actual Time
Civil Twilight
Nautical Twilight
Astronomical Twilight
Moon
Length of Visible Light
Length of Day
Tomorrow will be .
, % of the Moon is Illuminated

Today's Extremes

State Highs State Lows

Community

WunderPhotos

Upload Photos

1,790,226 photos uploaded!

WunderBlogs® & News

Nearby

Air Quality

  Air Quality AQ Index Pollutant
Not available.

Snow Depth

Station Depth Elevation

Earthquake Activity

City Distance Mag. Time & Date
Minimum magnitude displayed is 2.5.

Coastal Water Temperatures

Place Temperature

Nearby Weather Stations